createdAt,value
2024-02-21T00:00:49.394Z,3.45
2024-02-21T00:03:16.411Z,3.13
2024-02-21T00:05:43.299Z,2.85
2024-02-21T00:08:10.469Z,2.88
2024-02-21T00:10:37.503Z,2.65
2024-02-21T00:13:04.700Z,3.60
2024-02-21T00:15:31.634Z,2.72
2024-02-21T00:17:58.594Z,3.25
2024-02-21T00:20:27.105Z,2.80
2024-02-21T00:22:54.392Z,3.30
2024-02-21T00:25:21.378Z,3.08
2024-02-21T00:27:48.349Z,3.38
2024-02-21T00:30:15.724Z,2.50
2024-02-21T00:32:42.728Z,2.42
2024-02-21T00:35:09.889Z,3.25
2024-02-21T00:37:36.904Z,3.38
2024-02-21T00:40:04.360Z,2.42
2024-02-21T00:42:31.252Z,3.00
2024-02-21T00:44:58.230Z,2.15
2024-02-21T00:47:25.190Z,2.97
2024-02-21T00:49:52.274Z,2.75
2024-02-21T00:52:19.258Z,2.95
2024-02-21T00:54:50.910Z,3.20
2024-02-21T00:57:22.012Z,3.53
2024-02-21T00:59:48.845Z,3.08
2024-02-21T01:02:15.814Z,3.08
2024-02-21T01:04:42.839Z,3.47
2024-02-21T01:07:09.741Z,2.80
2024-02-21T01:09:36.586Z,3.85
2024-02-21T01:12:03.686Z,3.35
2024-02-21T01:14:30.619Z,2.95
2024-02-21T01:16:57.551Z,4.18
2024-02-21T01:19:24.688Z,3.72
2024-02-21T01:21:51.851Z,2.95
2024-02-21T01:24:18.769Z,3.83
2024-02-21T01:26:45.620Z,3.42
2024-02-21T01:29:12.502Z,3.35
2024-02-21T01:31:39.490Z,3.50
2024-02-21T01:34:06.511Z,3.22
2024-02-21T01:36:33.753Z,3.53
2024-02-21T01:39:00.708Z,3.70
2024-02-21T01:41:27.585Z,3.92
2024-02-21T01:43:54.504Z,3.22
2024-02-21T01:46:21.731Z,3.50
2024-02-21T01:48:48.722Z,3.60
2024-02-21T01:51:16.949Z,3.25
2024-02-21T01:53:45.952Z,3.28
2024-02-21T01:56:14.614Z,4.15
2024-02-21T01:58:45.275Z,3.90
2024-02-21T02:01:12.506Z,3.40
2024-02-21T02:03:39.593Z,3.40
2024-02-21T02:06:10.189Z,4.00
2024-02-21T02:08:37.408Z,3.83
2024-02-21T02:11:05.077Z,3.85
2024-02-21T02:13:32.183Z,4.10
2024-02-21T02:15:59.143Z,3.38
2024-02-21T02:18:26.112Z,3.70
2024-02-21T02:20:54.322Z,4.43
2024-02-21T02:23:34.450Z,3.80
2024-02-21T02:26:04.946Z,4.45
2024-02-21T02:28:32.374Z,4.45
2024-02-21T02:30:59.295Z,4.13
2024-02-21T02:33:26.342Z,3.75
2024-02-21T02:35:53.230Z,4.28
2024-02-21T02:38:20.090Z,4.30
2024-02-21T02:40:47.242Z,4.95
2024-02-21T02:43:14.280Z,4.40
2024-02-21T02:45:41.240Z,5.30
2024-02-21T02:48:09.005Z,4.50
2024-02-21T02:50:35.973Z,4.85
2024-02-21T02:53:02.945Z,4.60
2024-02-21T02:55:30.038Z,4.50
2024-02-21T02:57:57.811Z,4.30
2024-02-21T03:00:24.797Z,4.22
2024-02-21T03:02:52.277Z,4.43
2024-02-21T03:05:22.108Z,4.22
2024-02-21T03:07:51.164Z,4.55
2024-02-21T03:10:19.473Z,4.55
2024-02-21T03:12:47.203Z,4.70
2024-02-21T03:15:15.559Z,4.60
2024-02-21T03:17:43.350Z,5.15
2024-02-21T03:20:13.030Z,4.63
2024-02-21T03:22:42.000Z,5.13
2024-02-21T03:25:13.579Z,5.22
2024-02-21T03:27:40.577Z,5.03
2024-02-21T03:30:08.066Z,4.72
2024-02-21T03:32:35.362Z,4.63
2024-02-21T03:35:02.418Z,4.70
2024-02-21T03:37:29.424Z,4.53
2024-02-21T03:39:56.594Z,4.72
2024-02-21T03:42:23.790Z,5.35
2024-02-21T03:44:50.574Z,5.40
2024-02-21T03:47:17.551Z,5.40
2024-02-21T03:49:44.560Z,4.70
2024-02-21T03:52:11.630Z,4.50
2024-02-21T03:54:38.750Z,5.10
2024-02-21T03:57:07.539Z,4.88
2024-02-21T03:59:34.428Z,4.65
2024-02-21T04:02:01.771Z,5.05
2024-02-21T04:04:28.807Z,4.70
2024-02-21T04:06:55.730Z,4.43
2024-02-21T04:09:23.017Z,4.78
2024-02-21T04:11:50.101Z,5.05
2024-02-21T04:14:17.023Z,4.75
2024-02-21T04:16:43.929Z,4.50
2024-02-21T04:19:10.878Z,4.45
2024-02-21T04:21:37.727Z,4.43
2024-02-21T04:24:07.032Z,4.53
2024-02-21T04:26:34.968Z,4.55
2024-02-21T04:29:02.464Z,4.90
2024-02-21T04:31:29.965Z,5.10
2024-02-21T04:33:57.768Z,4.35
2024-02-21T04:36:24.989Z,5.00
2024-02-21T04:38:51.919Z,4.80
2024-02-21T04:41:18.889Z,4.75
2024-02-21T04:43:49.293Z,5.22
2024-02-21T04:46:16.916Z,5.75
2024-02-21T04:48:44.386Z,5.43
2024-02-21T04:51:12.751Z,5.05
2024-02-21T04:53:39.725Z,4.70
2024-02-21T04:56:06.951Z,5.20
2024-02-21T04:58:33.918Z,6.03
2024-02-21T05:01:00.918Z,6.53
2024-02-21T05:03:27.789Z,5.90
2024-02-21T05:05:54.838Z,6.38
2024-02-21T05:08:21.808Z,6.32
2024-02-21T05:10:48.698Z,5.72
2024-02-21T05:13:16.626Z,6.00
2024-02-21T05:15:43.613Z,6.20
2024-02-21T05:18:10.566Z,6.45
2024-02-21T05:20:37.528Z,6.40
2024-02-21T05:23:04.857Z,7.00
2024-02-21T05:25:31.846Z,6.22
2024-02-21T05:28:03.009Z,6.90
2024-02-21T05:30:30.612Z,7.20
2024-02-21T05:32:58.011Z,7.30
2024-02-21T05:35:29.976Z,7.47
2024-02-21T05:37:57.051Z,7.10
2024-02-21T05:40:24.306Z,7.07
2024-02-21T05:42:52.814Z,6.38
2024-02-21T05:45:19.857Z,7.05
2024-02-21T05:47:46.808Z,6.47
2024-02-21T05:50:13.823Z,6.82
2024-02-21T05:52:40.836Z,5.93
2024-02-21T05:55:10.037Z,6.75
2024-02-21T05:57:38.082Z,6.70
2024-02-21T06:00:07.206Z,6.30
2024-02-21T06:02:39.384Z,6.10
2024-02-21T06:05:08.820Z,6.97
2024-02-21T06:07:36.126Z,6.18
2024-02-21T06:10:04.140Z,6.70
2024-02-21T06:12:31.438Z,6.95
2024-02-21T06:14:58.286Z,7.13
2024-02-21T06:17:25.218Z,6.97
2024-02-21T06:19:52.364Z,6.50
2024-02-21T06:22:19.325Z,7.93
2024-02-21T06:24:46.588Z,6.68
2024-02-21T06:27:15.701Z,7.47
2024-02-21T06:29:42.770Z,8.02
2024-02-21T06:32:09.781Z,8.35
2024-02-21T06:34:36.873Z,8.25
2024-02-21T06:37:04.141Z,8.93
2024-02-21T06:39:31.314Z,8.13
2024-02-21T06:42:02.024Z,8.20
2024-02-21T06:44:30.748Z,9.02
2024-02-21T06:46:57.820Z,9.13
2024-02-21T06:49:25.020Z,8.43
2024-02-21T06:51:52.105Z,8.35
2024-02-21T06:54:19.070Z,8.70
2024-02-21T06:56:45.955Z,8.23
2024-02-21T06:59:16.594Z,9.10
2024-02-21T07:01:54.972Z,9.98
2024-02-21T07:04:21.986Z,9.48
2024-02-21T07:06:48.968Z,9.73
2024-02-21T07:09:15.857Z,9.57
2024-02-21T07:11:42.747Z,9.93
2024-02-21T07:14:09.737Z,9.88
2024-02-21T07:16:36.634Z,9.48
2024-02-21T07:19:04.401Z,9.52
2024-02-21T07:21:31.445Z,9.23
2024-02-21T07:23:58.354Z,9.35
2024-02-21T07:26:25.254Z,9.45
2024-02-21T07:28:52.159Z,9.43
2024-02-21T07:31:19.069Z,8.93
2024-02-21T07:33:46.080Z,9.95
2024-02-21T07:36:13.473Z,9.90
2024-02-21T07:38:40.605Z,10.43
2024-02-21T07:41:07.583Z,10.60
2024-02-21T07:43:34.844Z,10.13
2024-02-21T07:46:01.836Z,10.15
2024-02-21T07:48:29.201Z,9.73
2024-02-21T07:50:57.091Z,9.25
2024-02-21T07:53:23.984Z,10.30
2024-02-21T07:55:50.936Z,9.85
2024-02-21T07:58:17.895Z,9.27
2024-02-21T08:00:44.808Z,9.85
2024-02-21T08:03:12.013Z,10.05
2024-02-21T08:05:38.889Z,10.18
2024-02-21T08:08:06.431Z,9.93
2024-02-21T08:10:33.520Z,8.77
2024-02-21T08:13:00.630Z,9.65
2024-02-21T08:15:30.509Z,9.00
2024-02-21T08:18:01.399Z,8.93
2024-02-21T08:20:28.996Z,10.85
2024-02-21T08:22:56.010Z,8.88
2024-02-21T08:25:23.185Z,9.43
2024-02-21T08:27:50.210Z,9.32
2024-02-21T08:30:17.339Z,10.07
2024-02-21T08:32:44.413Z,9.95
2024-02-21T08:35:11.773Z,9.68
2024-02-21T08:37:38.868Z,9.57
2024-02-21T08:40:09.714Z,10.30
2024-02-21T08:42:39.647Z,11.25
2024-02-21T08:45:07.294Z,11.63
2024-02-21T08:47:34.104Z,11.75
2024-02-21T08:50:08.741Z,11.60
2024-02-21T08:52:42.533Z,11.65
2024-02-21T08:55:09.778Z,11.13
2024-02-21T08:57:37.674Z,10.55
2024-02-21T09:00:10.646Z,11.25
2024-02-21T09:02:41.907Z,11.43
2024-02-21T09:05:09.560Z,11.23
2024-02-21T09:07:36.553Z,10.95
2024-02-21T09:10:03.974Z,9.88
2024-02-21T09:12:30.911Z,9.23
2024-02-21T09:14:58.124Z,9.45
2024-02-21T09:17:26.287Z,10.13
2024-02-21T09:19:53.718Z,10.23
2024-02-21T09:22:20.751Z,9.38
2024-02-21T09:24:48.541Z,8.82
2024-02-21T09:27:15.486Z,9.02
2024-02-21T09:29:42.595Z,8.75
2024-02-21T09:32:09.722Z,8.18
2024-02-21T09:34:37.040Z,8.25
2024-02-21T09:37:04.343Z,8.57
2024-02-21T09:39:31.770Z,9.20
2024-02-21T09:42:07.083Z,8.60
2024-02-21T09:44:44.473Z,8.45
2024-02-21T09:47:21.623Z,8.05
2024-02-21T09:49:49.072Z,8.88
2024-02-21T09:52:18.011Z,8.55
2024-02-21T09:54:46.101Z,8.45
2024-02-21T09:57:14.166Z,8.10
2024-02-21T09:59:42.871Z,8.10
2024-02-21T10:02:10.345Z,7.13
2024-02-21T10:04:37.570Z,7.80
2024-02-21T10:07:05.470Z,7.88
2024-02-21T10:09:33.642Z,7.82
2024-02-21T10:12:11.741Z,7.13
2024-02-21T10:14:39.516Z,7.28
2024-02-21T10:17:11.129Z,7.45
2024-02-21T10:19:40.687Z,7.07
2024-02-21T10:22:09.886Z,6.80
2024-02-21T10:24:44.703Z,6.70
2024-02-21T10:27:12.444Z,6.13
2024-02-21T10:29:41.286Z,5.97
2024-02-21T10:32:11.764Z,6.00
2024-02-21T10:34:41.477Z,6.38
2024-02-21T10:37:10.846Z,6.68
2024-02-21T10:39:41.746Z,6.03
2024-02-21T10:42:12.970Z,5.40
2024-02-21T10:44:41.784Z,5.97
2024-02-21T10:47:12.751Z,5.40
2024-02-21T10:49:42.463Z,5.55
2024-02-21T10:52:29.525Z,5.22
2024-02-21T10:55:14.404Z,5.40
2024-02-21T10:57:41.797Z,5.20
2024-02-21T11:00:13.411Z,5.10
2024-02-21T11:02:41.606Z,5.32
2024-02-21T11:05:09.756Z,4.90
2024-02-21T11:07:39.350Z,4.93
2024-02-21T11:10:08.641Z,5.43
2024-02-21T11:12:35.789Z,5.65
2024-02-21T11:15:09.102Z,5.35
2024-02-21T11:17:44.608Z,6.07
2024-02-21T11:20:17.451Z,6.15
2024-02-21T11:22:44.983Z,5.82
2024-02-21T11:25:48.786Z,6.32
2024-02-21T11:28:26.876Z,7.50
2024-02-21T11:30:55.870Z,7.28
2024-02-21T11:33:24.913Z,8.35
2024-02-21T11:35:54.224Z,8.15
2024-02-21T11:38:23.955Z,8.25
2024-02-21T11:40:50.915Z,7.70
2024-02-21T11:43:18.137Z,7.78
2024-02-21T11:45:45.087Z,8.32
2024-02-21T11:48:12.088Z,8.07
2024-02-21T11:50:40.858Z,8.00
2024-02-21T11:53:08.076Z,7.72
2024-02-21T11:55:35.522Z,7.72
2024-02-21T11:58:02.543Z,7.07
2024-02-21T12:00:29.425Z,7.32
2024-02-21T12:03:01.451Z,7.40
2024-02-21T12:05:30.086Z,6.88
2024-02-21T12:07:59.412Z,6.55
2024-02-21T12:10:30.731Z,7.05
2024-02-21T12:13:10.849Z,6.50
2024-02-21T12:15:40.068Z,6.90
2024-02-21T12:18:07.262Z,6.60
2024-02-21T12:20:34.353Z,6.30
2024-02-21T12:23:02.643Z,6.22
2024-02-21T12:25:30.325Z,6.00
2024-02-21T12:27:57.512Z,6.75
2024-02-21T12:30:24.602Z,5.95
2024-02-21T12:32:51.582Z,6.03
2024-02-21T12:35:21.555Z,6.03
2024-02-21T12:37:48.599Z,5.65
2024-02-21T12:40:15.977Z,6.07
2024-02-21T12:42:43.730Z,5.50
2024-02-21T12:45:10.944Z,5.95
2024-02-21T12:47:38.040Z,5.07
2024-02-21T12:50:08.085Z,5.50
2024-02-21T12:52:35.451Z,5.43
2024-02-21T12:55:27.621Z,5.20
2024-02-21T12:57:54.517Z,5.30
2024-02-21T13:00:22.158Z,5.00
2024-02-21T13:02:49.233Z,4.82
2024-02-21T13:05:16.462Z,4.75
2024-02-21T13:07:43.430Z,4.93
2024-02-21T13:10:10.540Z,4.60
2024-02-21T13:12:37.797Z,4.82
2024-02-21T13:15:05.829Z,4.90
2024-02-21T13:17:33.055Z,4.43
2024-02-21T13:20:00.463Z,5.15
2024-02-21T13:22:27.893Z,4.72
2024-02-21T13:24:56.438Z,4.20
2024-02-21T13:27:24.761Z,4.60
2024-02-21T13:29:51.620Z,4.55
2024-02-21T13:32:18.571Z,4.47
2024-02-21T13:34:45.747Z,4.18
2024-02-21T13:37:12.627Z,4.00
2024-02-21T13:39:39.476Z,3.92
2024-02-21T13:42:07.084Z,4.07
2024-02-21T13:44:35.589Z,3.70
2024-02-21T13:47:02.509Z,4.32
2024-02-21T13:49:30.050Z,4.15
2024-02-21T13:51:57.046Z,4.28
2024-02-21T13:54:23.948Z,4.30
2024-02-21T13:56:51.065Z,4.03
2024-02-21T13:59:18.421Z,4.38
2024-02-21T14:01:45.411Z,4.10
2024-02-21T14:04:13.122Z,4.13
2024-02-21T14:06:44.319Z,4.20
2024-02-21T14:09:12.015Z,4.18
2024-02-21T14:11:39.655Z,3.78
2024-02-21T14:14:07.222Z,4.00
2024-02-21T14:16:34.515Z,4.07
2024-02-21T14:19:01.619Z,4.55
2024-02-21T14:21:29.719Z,3.92
2024-02-21T14:23:57.732Z,4.10
2024-02-21T14:26:24.685Z,4.95
2024-02-21T14:28:51.856Z,4.03
2024-02-21T14:31:18.757Z,4.07
2024-02-21T14:33:47.270Z,3.70
2024-02-21T14:36:16.363Z,4.13
2024-02-21T14:38:44.456Z,3.72
2024-02-21T14:41:15.216Z,3.42
2024-02-21T14:43:42.684Z,3.67
2024-02-21T14:46:09.495Z,3.13
2024-02-21T14:48:37.678Z,4.10
2024-02-21T14:51:05.193Z,3.83
2024-02-21T14:53:32.010Z,3.47
2024-02-21T14:56:01.798Z,3.55
2024-02-21T14:58:28.853Z,3.60
2024-02-21T15:00:56.055Z,3.75
2024-02-21T15:03:23.190Z,3.90
2024-02-21T15:05:50.147Z,3.95
2024-02-21T15:08:19.399Z,4.10
2024-02-21T15:10:46.576Z,3.70
2024-02-21T15:13:13.799Z,4.10
2024-02-21T15:15:41.144Z,4.03
2024-02-21T15:18:08.073Z,4.18
2024-02-21T15:20:34.976Z,4.47
2024-02-21T15:23:05.819Z,4.13
2024-02-21T15:25:33.139Z,4.38
2024-02-21T15:28:00.457Z,4.55
2024-02-21T15:30:32.892Z,4.22
2024-02-21T15:33:03.336Z,4.70
2024-02-21T15:35:30.798Z,4.22
2024-02-21T15:37:59.193Z,4.50
2024-02-21T15:40:26.135Z,4.32
2024-02-21T15:42:53.193Z,4.47
2024-02-21T15:45:20.058Z,4.63
2024-02-21T15:47:47.103Z,4.53
2024-02-21T15:50:14.120Z,4.28
2024-02-21T15:52:41.132Z,4.70
2024-02-21T15:55:11.348Z,3.92
2024-02-21T15:57:38.821Z,3.85
2024-02-21T16:00:08.412Z,3.72
2024-02-21T16:02:37.201Z,4.28
2024-02-21T16:05:10.007Z,4.38
2024-02-21T16:07:41.424Z,4.15
2024-02-21T16:10:11.234Z,4.32
2024-02-21T16:12:41.969Z,4.30
2024-02-21T16:15:09.988Z,4.00
2024-02-21T16:17:36.823Z,4.50
2024-02-21T16:20:05.214Z,3.90
2024-02-21T16:22:32.700Z,4.18
2024-02-21T16:24:59.727Z,4.47
2024-02-21T16:27:26.669Z,4.57
2024-02-21T16:29:53.515Z,5.10
2024-02-21T16:32:20.363Z,4.70
2024-02-21T16:34:47.347Z,4.60
2024-02-21T16:37:15.119Z,4.47
2024-02-21T16:39:41.959Z,4.68
2024-02-21T16:42:08.860Z,4.53
2024-02-21T16:44:36.397Z,4.60
2024-02-21T16:47:03.772Z,4.60
2024-02-21T16:49:32.913Z,4.60
2024-02-21T16:52:01.142Z,4.60
2024-02-21T16:54:28.052Z,4.85
2024-02-21T16:56:54.997Z,4.47
2024-02-21T16:59:22.329Z,4.45
2024-02-21T17:01:52.459Z,4.72
2024-02-21T17:04:19.876Z,5.07
2024-02-21T17:06:47.944Z,4.72
2024-02-21T17:09:18.644Z,4.32
2024-02-21T17:11:45.894Z,4.93
2024-02-21T17:14:13.547Z,4.60
2024-02-21T17:16:40.595Z,4.20
2024-02-21T17:19:11.052Z,4.57
2024-02-21T17:21:38.078Z,4.15
2024-02-21T17:24:05.572Z,4.75
2024-02-21T17:26:32.451Z,4.38
2024-02-21T17:29:02.200Z,3.83
2024-02-21T17:31:29.465Z,4.57
2024-02-21T17:33:56.325Z,4.63
2024-02-21T17:36:23.242Z,4.50
2024-02-21T17:38:51.994Z,4.40
2024-02-21T17:41:19.828Z,4.40
2024-02-21T17:43:47.328Z,5.05
2024-02-21T17:46:14.796Z,4.43
2024-02-21T17:48:41.825Z,4.38
2024-02-21T17:51:08.874Z,4.82
2024-02-21T17:53:36.045Z,3.83
2024-02-21T17:56:04.350Z,3.95
2024-02-21T17:58:31.797Z,4.13
2024-02-21T18:01:00.978Z,4.18
2024-02-21T18:03:31.633Z,4.90
2024-02-21T18:06:03.637Z,4.68
2024-02-21T18:08:31.875Z,4.40
2024-02-21T18:10:59.080Z,4.57
2024-02-21T18:13:26.199Z,4.60
2024-02-21T18:15:53.472Z,4.53
2024-02-21T18:18:20.409Z,5.03
2024-02-21T18:20:47.425Z,4.47
2024-02-21T18:23:14.457Z,4.88
2024-02-21T18:25:41.514Z,4.50
2024-02-21T18:28:08.432Z,4.95
2024-02-21T18:30:35.824Z,4.00
2024-02-21T18:33:03.555Z,4.65
2024-02-21T18:35:33.183Z,4.80
2024-02-21T18:38:00.809Z,4.82
2024-02-21T18:40:28.962Z,4.30
2024-02-21T18:42:58.752Z,4.90
2024-02-21T18:45:26.747Z,4.22
2024-02-21T18:47:54.171Z,4.80
2024-02-21T18:50:21.189Z,4.68
2024-02-21T18:52:53.286Z,4.72
2024-02-21T18:55:20.734Z,4.45
2024-02-21T18:57:47.660Z,4.63
2024-02-21T19:00:17.990Z,5.15
2024-02-21T19:02:45.076Z,5.18
2024-02-21T19:05:12.185Z,4.45
2024-02-21T19:07:39.430Z,4.40
2024-02-21T19:10:07.274Z,4.35
2024-02-21T19:12:34.282Z,4.80
2024-02-21T19:15:01.267Z,4.95
2024-02-21T19:17:29.773Z,4.63
2024-02-21T19:19:56.897Z,4.40
2024-02-21T19:22:26.011Z,4.25
2024-02-21T19:24:53.053Z,4.53
2024-02-21T19:27:19.881Z,4.80
2024-02-21T19:29:46.986Z,4.55
2024-02-21T19:32:14.129Z,4.70
2024-02-21T19:34:42.722Z,4.70
2024-02-21T19:37:09.878Z,4.65
2024-02-21T19:39:36.872Z,4.90
2024-02-21T19:42:06.028Z,4.63
2024-02-21T19:44:32.885Z,5.15
2024-02-21T19:46:59.785Z,4.70
2024-02-21T19:49:26.719Z,4.43
2024-02-21T19:51:53.603Z,4.88
2024-02-21T19:54:24.948Z,4.40
2024-02-21T19:56:52.471Z,4.32
2024-02-21T19:59:19.449Z,4.95
2024-02-21T20:01:47.269Z,4.82
2024-02-21T20:04:14.244Z,4.32
2024-02-21T20:06:41.076Z,4.60
2024-02-21T20:09:08.785Z,4.60
2024-02-21T20:11:36.130Z,4.72
2024-02-21T20:14:03.268Z,4.75
2024-02-21T20:16:30.795Z,4.22
2024-02-21T20:18:58.930Z,4.80
2024-02-21T20:21:26.022Z,4.43
2024-02-21T20:23:52.854Z,4.60
2024-02-21T20:26:19.903Z,4.20
2024-02-21T20:28:46.865Z,4.65
2024-02-21T20:31:20.435Z,4.32
2024-02-21T20:33:47.812Z,4.57
2024-02-21T20:36:14.732Z,4.20
2024-02-21T20:38:41.773Z,4.10
2024-02-21T20:41:18.474Z,4.20
2024-02-21T20:43:47.206Z,4.18
2024-02-21T20:46:14.478Z,4.20
2024-02-21T20:48:41.792Z,3.60
2024-02-21T20:51:09.100Z,4.30
2024-02-21T20:53:36.247Z,4.90
2024-02-21T20:56:04.152Z,5.88
2024-02-21T20:58:31.107Z,4.43
2024-02-21T21:00:58.174Z,4.57
2024-02-21T21:03:25.174Z,4.40
2024-02-21T21:05:52.020Z,3.78
2024-02-21T21:08:19.096Z,3.75
2024-02-21T21:10:46.240Z,3.80
2024-02-21T21:13:23.324Z,3.47
2024-02-21T21:15:57.458Z,4.05
2024-02-21T21:18:26.985Z,3.83
2024-02-21T21:20:54.057Z,3.65
2024-02-21T21:23:21.017Z,3.65
2024-02-21T21:25:48.287Z,3.67
2024-02-21T21:28:15.209Z,4.47
2024-02-21T21:30:42.062Z,3.75
2024-02-21T21:33:09.043Z,4.22
2024-02-21T21:35:38.804Z,4.28
2024-02-21T21:38:06.195Z,5.22
2024-02-21T21:40:33.828Z,5.72
2024-02-21T21:43:00.725Z,5.40
2024-02-21T21:45:28.273Z,8.02
2024-02-21T21:47:55.350Z,5.47
2024-02-21T21:50:22.287Z,4.22
2024-02-21T21:52:49.234Z,4.03
2024-02-21T21:55:16.159Z,5.22
2024-02-21T21:57:46.708Z,7.05
2024-02-21T22:00:14.354Z,6.90
2024-02-21T22:02:43.473Z,4.75
2024-02-21T22:05:12.334Z,4.97
2024-02-21T22:07:39.275Z,5.70
2024-02-21T22:10:07.383Z,4.60
2024-02-21T22:12:34.550Z,4.30
2024-02-21T22:15:01.594Z,5.18
2024-02-21T22:17:28.531Z,4.82
2024-02-21T22:19:55.396Z,4.82
2024-02-21T22:22:22.234Z,4.70
2024-02-21T22:24:49.097Z,4.78
2024-02-21T22:27:15.995Z,4.75
2024-02-21T22:29:42.941Z,5.45
2024-02-21T22:32:10.721Z,5.50
2024-02-21T22:34:38.267Z,5.10
2024-02-21T22:37:06.097Z,5.05
2024-02-21T22:39:33.113Z,5.00
2024-02-21T22:41:59.964Z,5.65
2024-02-21T22:44:27.028Z,5.60
2024-02-21T22:46:57.001Z,4.75
2024-02-21T22:49:24.603Z,5.05
2024-02-21T22:51:51.496Z,5.28
2024-02-21T22:54:18.318Z,5.80
2024-02-21T22:56:45.244Z,6.18
2024-02-21T22:59:12.927Z,5.32
2024-02-21T23:01:40.072Z,5.63
2024-02-21T23:04:07.556Z,5.82
2024-02-21T23:06:34.667Z,5.38
2024-02-21T23:09:04.665Z,5.53
2024-02-21T23:11:32.268Z,5.55
2024-02-21T23:13:59.168Z,5.22
2024-02-21T23:16:26.097Z,4.88
2024-02-21T23:18:53.252Z,5.32
2024-02-21T23:21:20.269Z,5.53
2024-02-21T23:23:47.142Z,5.40
2024-02-21T23:26:14.440Z,4.68
2024-02-21T23:28:45.739Z,5.00
2024-02-21T23:31:16.713Z,5.38
2024-02-21T23:33:43.957Z,5.25
2024-02-21T23:36:11.141Z,5.20
2024-02-21T23:38:38.008Z,5.35
2024-02-21T23:41:04.997Z,5.45
2024-02-21T23:43:45.174Z,5.68
2024-02-21T23:46:12.068Z,5.57
2024-02-21T23:48:40.220Z,5.85
2024-02-21T23:51:08.022Z,6.38
2024-02-21T23:53:35.012Z,5.63
2024-02-21T23:56:04.209Z,6.05
2024-02-21T23:58:31.545Z,5.20
